sensor_id;sensor_type;location;lat;lon;timestamp;P1;P2;P0
30713;PMS7003;17465;47.934;33.430;2023-06-19T00:01:26;20.80;18.60;12.20
30713;PMS7003;17465;47.934;33.430;2023-06-19T00:03:57;16.60;16.20;11.20
30713;PMS7003;17465;47.934;33.430;2023-06-19T00:06:28;17.80;15.60;9.00
30713;PMS7003;17465;47.934;33.430;2023-06-19T00:08:58;18.80;18.40;11.20
30713;PMS7003;17465;47.934;33.430;2023-06-19T00:11:29;17.80;17.80;11.00
30713;PMS7003;17465;47.934;33.430;2023-06-19T00:13:59;21.80;20.20;12.20
30713;PMS7003;17465;47.934;33.430;2023-06-19T00:16:30;18.00;17.00;11.00
30713;PMS7003;17465;47.934;33.430;2023-06-19T00:19:02;21.60;17.00;8.40
30713;PMS7003;17465;47.934;33.430;2023-06-19T00:21:33;21.00;18.20;11.40
30713;PMS7003;17465;47.934;33.430;2023-06-19T00:24:03;19.80;19.80;11.00
30713;PMS7003;17465;47.934;33.430;2023-06-19T00:26:34;19.40;18.00;10.80
30713;PMS7003;17465;47.934;33.430;2023-06-19T00:29:05;18.00;16.40;10.20
30713;PMS7003;17465;47.934;33.430;2023-06-19T00:31:35;13.20;12.40;7.00
30713;PMS7003;17465;47.934;33.430;2023-06-19T00:34:05;17.40;16.20;10.00
30713;PMS7003;17465;47.934;33.430;2023-06-19T00:36:35;15.60;15.60;9.80
30713;PMS7003;17465;47.934;33.430;2023-06-19T00:39:06;18.60;17.00;11.00
30713;PMS7003;17465;47.934;33.430;2023-06-19T00:41:38;15.00;15.00;8.60
30713;PMS7003;17465;47.934;33.430;2023-06-19T00:44:09;14.60;13.20;9.00
30713;PMS7003;17465;47.934;33.430;2023-06-19T00:46:51;17.00;16.60;10.00
30713;PMS7003;17465;47.934;33.430;2023-06-19T00:49:23;15.40;15.40;8.20
30713;PMS7003;17465;47.934;33.430;2023-06-19T00:51:55;18.80;16.60;9.00
30713;PMS7003;17465;47.934;33.430;2023-06-19T00:54:25;12.60;11.00;7.00
30713;PMS7003;17465;47.934;33.430;2023-06-19T00:56:56;14.20;12.80;8.20
30713;PMS7003;17465;47.934;33.430;2023-06-19T00:59:26;16.80;16.40;7.80
30713;PMS7003;17465;47.934;33.430;2023-06-19T01:01:56;18.80;17.20;8.80
30713;PMS7003;17465;47.934;33.430;2023-06-19T01:04:27;16.40;14.40;8.20
30713;PMS7003;17465;47.934;33.430;2023-06-19T01:06:59;12.80;12.00;9.40
30713;PMS7003;17465;47.934;33.430;2023-06-19T01:09:33;14.00;13.00;6.60
30713;PMS7003;17465;47.934;33.430;2023-06-19T01:12:07;13.60;13.60;8.00
30713;PMS7003;17465;47.934;33.430;2023-06-19T01:15:00;10.80;10.80;5.80
30713;PMS7003;17465;47.934;33.430;2023-06-19T01:17:32;14.40;13.80;8.00
30713;PMS7003;17465;47.934;33.430;2023-06-19T01:20:05;17.00;13.60;7.80
30713;PMS7003;17465;47.934;33.430;2023-06-19T01:22:36;13.40;11.60;5.60
30713;PMS7003;17465;47.934;33.430;2023-06-19T01:25:07;15.00;14.40;10.00
30713;PMS7003;17465;47.934;33.430;2023-06-19T01:27:37;12.20;10.80;5.20
30713;PMS7003;17465;47.934;33.430;2023-06-19T01:30:08;17.20;14.00;7.20
30713;PMS7003;17465;47.934;33.430;2023-06-19T01:35:33;15.80;14.60;7.20
30713;PMS7003;17465;47.934;33.430;2023-06-19T01:38:05;15.40;13.00;7.40
30713;PMS7003;17465;47.934;33.430;2023-06-19T01:40:36;13.60;12.00;8.40
30713;PMS7003;17465;47.934;33.430;2023-06-19T01:43:07;12.00;11.20;8.00
30713;PMS7003;17465;47.934;33.430;2023-06-19T01:45:39;12.00;12.00;7.60
30713;PMS7003;17465;47.934;33.430;2023-06-19T01:48:10;14.00;14.00;8.40
30713;PMS7003;17465;47.934;33.430;2023-06-19T01:50:49;8.20;6.80;3.80
30713;PMS7003;17465;47.934;33.430;2023-06-19T01:53:19;12.20;12.20;8.00
30713;PMS7003;17465;47.934;33.430;2023-06-19T01:55:49;14.80;14.00;8.60
30713;PMS7003;17465;47.934;33.430;2023-06-19T01:58:20;11.80;10.80;5.20
30713;PMS7003;17465;47.934;33.430;2023-06-19T02:00:50;11.20;10.40;7.00
30713;PMS7003;17465;47.934;33.430;2023-06-19T02:03:21;14.40;13.20;7.40
30713;PMS7003;17465;47.934;33.430;2023-06-19T02:05:51;48.00;39.25;24.50
30713;PMS7003;17465;47.934;33.430;2023-06-19T02:08:22;53.50;44.75;28.50
30713;PMS7003;17465;47.934;33.430;2023-06-19T02:10:52;22.80;20.80;12.00
30713;PMS7003;17465;47.934;33.430;2023-06-19T02:13:23;13.60;13.60;8.80
30713;PMS7003;17465;47.934;33.430;2023-06-19T02:15:53;15.60;14.60;7.40
30713;PMS7003;17465;47.934;33.430;2023-06-19T02:18:24;12.00;12.00;7.00
30713;PMS7003;17465;47.934;33.430;2023-06-19T02:20:54;14.60;13.80;8.80
30713;PMS7003;17465;47.934;33.430;2023-06-19T02:23:24;13.20;11.60;7.60
30713;PMS7003;17465;47.934;33.430;2023-06-19T02:25:55;12.80;11.00;6.60
30713;PMS7003;17465;47.934;33.430;2023-06-19T02:28:25;14.00;11.80;7.40
30713;PMS7003;17465;47.934;33.430;2023-06-19T02:30:55;23.75;22.50;12.75
30713;PMS7003;17465;47.934;33.430;2023-06-19T02:33:26;67.00;56.00;30.75
30713;PMS7003;17465;47.934;33.430;2023-06-19T02:35:56;14.20;13.20;7.00
30713;PMS7003;17465;47.934;33.430;2023-06-19T02:38:26;20.80;20.20;13.40
30713;PMS7003;17465;47.934;33.430;2023-06-19T02:40:57;20.80;20.40;13.00
30713;PMS7003;17465;47.934;33.430;2023-06-19T02:43:27;27.80;24.60;15.00
30713;PMS7003;17465;47.934;33.430;2023-06-19T02:45:58;24.40;22.00;14.60
30713;PMS7003;17465;47.934;33.430;2023-06-19T02:48:28;31.75;29.75;16.00
30713;PMS7003;17465;47.934;33.430;2023-06-19T02:50:58;37.50;32.50;20.75
30713;PMS7003;17465;47.934;33.430;2023-06-19T02:53:29;35.75;29.00;19.00
30713;PMS7003;17465;47.934;33.430;2023-06-19T02:55:59;37.25;32.00;19.25
30713;PMS7003;17465;47.934;33.430;2023-06-19T02:58:30;36.00;32.00;20.75
30713;PMS7003;17465;47.934;33.430;2023-06-19T03:01:01;39.50;34.25;20.50
30713;PMS7003;17465;47.934;33.430;2023-06-19T03:03:32;38.75;32.25;20.25
30713;PMS7003;17465;47.934;33.430;2023-06-19T03:06:05;37.75;32.50;19.75
30713;PMS7003;17465;47.934;33.430;2023-06-19T03:08:37;34.75;30.75;17.75
30713;PMS7003;17465;47.934;33.430;2023-06-19T03:11:07;34.75;31.25;20.50
30713;PMS7003;17465;47.934;33.430;2023-06-19T03:13:48;38.25;33.00;20.75
30713;PMS7003;17465;47.934;33.430;2023-06-19T03:16:21;34.25;31.00;19.00
30713;PMS7003;17465;47.934;33.430;2023-06-19T03:18:51;41.50;35.00;21.00
30713;PMS7003;17465;47.934;33.430;2023-06-19T03:21:28;40.25;34.50;22.25
30713;PMS7003;17465;47.934;33.430;2023-06-19T03:24:03;37.00;32.50;21.75
30713;PMS7003;17465;47.934;33.430;2023-06-19T03:26:36;37.00;30.75;20.00
30713;PMS7003;17465;47.934;33.430;2023-06-19T03:29:08;30.75;28.50;19.50
30713;PMS7003;17465;47.934;33.430;2023-06-19T03:31:39;35.50;32.00;17.50
30713;PMS7003;17465;47.934;33.430;2023-06-19T03:34:09;26.00;26.00;16.60
30713;PMS7003;17465;47.934;33.430;2023-06-19T03:36:40;29.00;27.40;17.20
30713;PMS7003;17465;47.934;33.430;2023-06-19T03:39:10;33.40;29.60;18.20
30713;PMS7003;17465;47.934;33.430;2023-06-19T03:41:40;31.80;29.00;18.20
30713;PMS7003;17465;47.934;33.430;2023-06-19T03:44:11;30.60;28.60;18.80
30713;PMS7003;17465;47.934;33.430;2023-06-19T03:46:41;27.80;25.20;14.60
30713;PMS7003;17465;47.934;33.430;2023-06-19T03:49:13;27.80;25.80;15.20
30713;PMS7003;17465;47.934;33.430;2023-06-19T03:51:43;29.00;26.75;15.75
30713;PMS7003;17465;47.934;33.430;2023-06-19T03:54:14;32.20;29.20;18.20
30713;PMS7003;17465;47.934;33.430;2023-06-19T03:56:44;28.40;26.40;16.80
30713;PMS7003;17465;47.934;33.430;2023-06-19T03:59:15;28.80;26.60;16.60
30713;PMS7003;17465;47.934;33.430;2023-06-19T04:01:45;30.20;27.60;16.40
30713;PMS7003;17465;47.934;33.430;2023-06-19T04:04:16;26.40;25.40;15.60
30713;PMS7003;17465;47.934;33.430;2023-06-19T04:06:46;29.80;26.80;17.60
30713;PMS7003;17465;47.934;33.430;2023-06-19T04:09:19;30.80;28.40;18.80
30713;PMS7003;17465;47.934;33.430;2023-06-19T04:11:49;24.60;24.60;15.80
30713;PMS7003;17465;47.934;33.430;2023-06-19T04:14:20;29.40;26.80;16.80
30713;PMS7003;17465;47.934;33.430;2023-06-19T04:16:50;26.00;22.40;13.00
30713;PMS7003;17465;47.934;33.430;2023-06-19T04:19:20;23.40;22.40;13.80
30713;PMS7003;17465;47.934;33.430;2023-06-19T04:21:51;23.80;22.80;13.80
30713;PMS7003;17465;47.934;33.430;2023-06-19T04:24:21;21.00;19.80;10.60
30713;PMS7003;17465;47.934;33.430;2023-06-19T04:26:51;18.20;17.40;8.20
30713;PMS7003;17465;47.934;33.430;2023-06-19T04:29:21;22.40;19.20;11.80
30713;PMS7003;17465;47.934;33.430;2023-06-19T04:31:52;23.00;23.00;13.40
30713;PMS7003;17465;47.934;33.430;2023-06-19T04:34:22;15.40;15.40;8.60
30713;PMS7003;17465;47.934;33.430;2023-06-19T04:36:52;17.60;16.40;9.20
30713;PMS7003;17465;47.934;33.430;2023-06-19T04:39:23;15.40;14.80;9.40
30713;PMS7003;17465;47.934;33.430;2023-06-19T04:41:53;15.80;14.80;8.40
30713;PMS7003;17465;47.934;33.430;2023-06-19T04:44:23;12.20;10.80;6.00
30713;PMS7003;17465;47.934;33.430;2023-06-19T04:46:53;12.60;12.60;6.80
30713;PMS7003;17465;47.934;33.430;2023-06-19T04:49:24;15.00;15.00;8.20
30713;PMS7003;17465;47.934;33.430;2023-06-19T04:51:54;12.60;12.40;7.20
30713;PMS7003;17465;47.934;33.430;2023-06-19T04:54:25;11.40;10.80;6.00
30713;PMS7003;17465;47.934;33.430;2023-06-19T04:56:55;14.40;14.40;9.00
30713;PMS7003;17465;47.934;33.430;2023-06-19T04:59:26;14.20;12.60;7.60
30713;PMS7003;17465;47.934;33.430;2023-06-19T05:01:56;12.00;12.00;8.00
30713;PMS7003;17465;47.934;33.430;2023-06-19T05:04:27;10.00;10.00;6.80
30713;PMS7003;17465;47.934;33.430;2023-06-19T05:07:00;9.20;9.00;3.80
30713;PMS7003;17465;47.934;33.430;2023-06-19T05:09:33;9.20;8.60;6.00
30713;PMS7003;17465;47.934;33.430;2023-06-19T05:12:03;13.60;12.80;6.00
30713;PMS7003;17465;47.934;33.430;2023-06-19T05:14:36;12.80;10.40;6.20
30713;PMS7003;17465;47.934;33.430;2023-06-19T05:17:08;13.60;12.60;7.20
30713;PMS7003;17465;47.934;33.430;2023-06-19T05:19:39;10.60;8.00;3.20
30713;PMS7003;17465;47.934;33.430;2023-06-19T05:22:09;9.20;9.20;6.80
30713;PMS7003;17465;47.934;33.430;2023-06-19T05:24:39;12.80;12.60;7.40
30713;PMS7003;17465;47.934;33.430;2023-06-19T05:27:10;16.00;16.00;8.40
30713;PMS7003;17465;47.934;33.430;2023-06-19T05:29:40;12.60;11.20;6.60
30713;PMS7003;17465;47.934;33.430;2023-06-19T05:32:10;10.20;9.60;5.80
30713;PMS7003;17465;47.934;33.430;2023-06-19T05:34:40;12.00;12.00;7.80
30713;PMS7003;17465;47.934;33.430;2023-06-19T05:37:14;11.00;10.20;7.00
30713;PMS7003;17465;47.934;33.430;2023-06-19T05:39:46;10.60;10.60;7.60
30713;PMS7003;17465;47.934;33.430;2023-06-19T05:42:16;12.20;10.80;6.00
30713;PMS7003;17465;47.934;33.430;2023-06-19T05:44:46;10.40;9.20;3.60
30713;PMS7003;17465;47.934;33.430;2023-06-19T05:47:17;14.80;13.80;7.20
30713;PMS7003;17465;47.934;33.430;2023-06-19T05:49:47;11.40;10.00;5.80
30713;PMS7003;17465;47.934;33.430;2023-06-19T05:52:17;5.40;4.20;2.20
30713;PMS7003;17465;47.934;33.430;2023-06-19T05:54:48;11.20;11.00;5.80
30713;PMS7003;17465;47.934;33.430;2023-06-19T05:57:19;9.20;9.20;6.20
30713;PMS7003;17465;47.934;33.430;2023-06-19T05:59:50;10.00;7.60;5.00
30713;PMS7003;17465;47.934;33.430;2023-06-19T06:02:21;10.80;10.80;6.20
30713;PMS7003;17465;47.934;33.430;2023-06-19T06:04:51;11.00;10.40;6.60
30713;PMS7003;17465;47.934;33.430;2023-06-19T06:07:21;8.40;8.00;4.40
30713;PMS7003;17465;47.934;33.430;2023-06-19T06:09:51;10.40;9.60;6.40
30713;PMS7003;17465;47.934;33.430;2023-06-19T06:12:22;8.40;8.40;5.20
30713;PMS7003;17465;47.934;33.430;2023-06-19T06:14:53;10.20;9.00;6.00
30713;PMS7003;17465;47.934;33.430;2023-06-19T06:17:23;10.00;9.00;3.60
30713;PMS7003;17465;47.934;33.430;2023-06-19T06:22:44;9.40;9.20;5.60
30713;PMS7003;17465;47.934;33.430;2023-06-19T06:25:14;7.00;7.00;3.60
30713;PMS7003;17465;47.934;33.430;2023-06-19T06:27:45;10.00;9.00;6.00
30713;PMS7003;17465;47.934;33.430;2023-06-19T06:30:15;8.60;8.40;5.00
30713;PMS7003;17465;47.934;33.430;2023-06-19T06:32:47;8.60;7.60;4.40
30713;PMS7003;17465;47.934;33.430;2023-06-19T06:35:22;7.00;7.00;4.20
30713;PMS7003;17465;47.934;33.430;2023-06-19T06:37:52;8.20;7.80;4.60
30713;PMS7003;17465;47.934;33.430;2023-06-19T06:40:26;8.00;8.00;5.00
30713;PMS7003;17465;47.934;33.430;2023-06-19T06:42:57;6.60;5.60;4.00
30713;PMS7003;17465;47.934;33.430;2023-06-19T06:45:28;9.80;9.00;7.40
30713;PMS7003;17465;47.934;33.430;2023-06-19T06:47:58;8.40;8.00;4.20
30713;PMS7003;17465;47.934;33.430;2023-06-19T06:50:32;7.00;7.00;4.20
30713;PMS7003;17465;47.934;33.430;2023-06-19T06:53:02;7.00;7.00;5.00
30713;PMS7003;17465;47.934;33.430;2023-06-19T06:55:38;7.60;7.60;5.00
30713;PMS7003;17465;47.934;33.430;2023-06-19T06:58:10;8.00;7.60;5.60
30713;PMS7003;17465;47.934;33.430;2023-06-19T07:00:40;8.80;8.20;4.00
30713;PMS7003;17465;47.934;33.430;2023-06-19T07:03:11;7.00;7.00;5.60
30713;PMS7003;17465;47.934;33.430;2023-06-19T07:05:42;6.00;5.00;3.00
30713;PMS7003;17465;47.934;33.430;2023-06-19T07:08:12;5.20;4.00;2.40
30713;PMS7003;17465;47.934;33.430;2023-06-19T07:10:43;6.00;6.00;4.00
30713;PMS7003;17465;47.934;33.430;2023-06-19T07:13:13;9.20;7.20;6.00
30713;PMS7003;17465;47.934;33.430;2023-06-19T07:15:57;8.00;7.20;4.80
30713;PMS7003;17465;47.934;33.430;2023-06-19T07:18:30;6.40;5.80;3.00
30713;PMS7003;17465;47.934;33.430;2023-06-19T07:21:01;5.00;5.00;1.80
30713;PMS7003;17465;47.934;33.430;2023-06-19T07:23:36;5.40;4.40;1.40
30713;PMS7003;17465;47.934;33.430;2023-06-19T07:26:06;6.00;4.80;3.00
30713;PMS7003;17465;47.934;33.430;2023-06-19T07:28:37;7.00;6.80;5.20
30713;PMS7003;17465;47.934;33.430;2023-06-19T07:31:07;3.40;3.40;1.80
30713;PMS7003;17465;47.934;33.430;2023-06-19T07:33:38;5.60;4.60;3.00
30713;PMS7003;17465;47.934;33.430;2023-06-19T07:36:08;6.60;6.40;5.00
30713;PMS7003;17465;47.934;33.430;2023-06-19T07:38:39;7.80;7.00;3.80
30713;PMS7003;17465;47.934;33.430;2023-06-19T07:41:10;5.00;4.00;2.00
30713;PMS7003;17465;47.934;33.430;2023-06-19T07:43:41;6.20;5.60;3.40
30713;PMS7003;17465;47.934;33.430;2023-06-19T07:46:11;6.20;6.20;4.20
30713;PMS7003;17465;47.934;33.430;2023-06-19T07:48:43;6.00;6.00;3.00
30713;PMS7003;17465;47.934;33.430;2023-06-19T07:51:13;6.00;5.00;2.80
30713;PMS7003;17465;47.934;33.430;2023-06-19T07:53:45;7.80;6.60;5.00
30713;PMS7003;17465;47.934;33.430;2023-06-19T07:56:18;4.80;4.80;3.00
30713;PMS7003;17465;47.934;33.430;2023-06-19T07:58:48;5.40;5.00;2.60
30713;PMS7003;17465;47.934;33.430;2023-06-19T08:01:18;3.60;3.60;2.00
30713;PMS7003;17465;47.934;33.430;2023-06-19T08:03:49;6.00;5.60;4.20
30713;PMS7003;17465;47.934;33.430;2023-06-19T08:06:20;5.00;5.00;3.40
30713;PMS7003;17465;47.934;33.430;2023-06-19T08:08:51;5.80;5.40;4.00
30713;PMS7003;17465;47.934;33.430;2023-06-19T08:11:21;4.60;4.60;3.20
30713;PMS7003;17465;47.934;33.430;2023-06-19T08:13:52;6.00;6.00;3.00
30713;PMS7003;17465;47.934;33.430;2023-06-19T08:16:24;6.40;4.20;2.20
30713;PMS7003;17465;47.934;33.430;2023-06-19T08:18:57;3.00;3.00;2.00
30713;PMS7003;17465;47.934;33.430;2023-06-19T08:21:27;6.20;6.20;4.20
30713;PMS7003;17465;47.934;33.430;2023-06-19T08:23:57;4.40;4.40;2.40
30713;PMS7003;17465;47.934;33.430;2023-06-19T08:26:29;4.80;4.80;3.20
30713;PMS7003;17465;47.934;33.430;2023-06-19T08:28:59;7.00;6.80;4.60
30713;PMS7003;17465;47.934;33.430;2023-06-19T08:31:30;6.20;5.60;3.00
30713;PMS7003;17465;47.934;33.430;2023-06-19T08:34:00;4.20;4.20;3.20
30713;PMS7003;17465;47.934;33.430;2023-06-19T08:36:37;5.00;4.80;3.00
30713;PMS7003;17465;47.934;33.430;2023-06-19T08:39:02;6.00;6.00;3.40
30713;PMS7003;17465;47.934;33.430;2023-06-19T08:41:33;6.60;5.80;3.20
30713;PMS7003;17465;47.934;33.430;2023-06-19T08:44:05;5.80;5.80;3.80
30713;PMS7003;17465;47.934;33.430;2023-06-19T08:46:36;6.20;6.20;4.80
30713;PMS7003;17465;47.934;33.430;2023-06-19T08:49:07;6.20;6.20;4.80
30713;PMS7003;17465;47.934;33.430;2023-06-19T08:51:39;6.60;6.60;4.80
30713;PMS7003;17465;47.934;33.430;2023-06-19T08:54:10;5.40;5.40;4.00
30713;PMS7003;17465;47.934;33.430;2023-06-19T08:56:41;5.80;5.80;3.00
30713;PMS7003;17465;47.934;33.430;2023-06-19T08:59:17;5.60;5.00;3.00
30713;PMS7003;17465;47.934;33.430;2023-06-19T09:01:48;4.00;4.00;2.20
30713;PMS7003;17465;47.934;33.430;2023-06-19T09:04:21;5.80;5.80;3.00
30713;PMS7003;17465;47.934;33.430;2023-06-19T09:06:57;7.00;6.00;3.60
30713;PMS7003;17465;47.934;33.430;2023-06-19T09:09:43;5.20;5.20;2.20
30713;PMS7003;17465;47.934;33.430;2023-06-19T09:12:15;5.00;5.00;2.80
30713;PMS7003;17465;47.934;33.430;2023-06-19T09:14:45;7.80;6.60;4.00
30713;PMS7003;17465;47.934;33.430;2023-06-19T09:17:23;5.80;5.20;3.00
30713;PMS7003;17465;47.934;33.430;2023-06-19T09:19:54;5.40;5.40;4.00
30713;PMS7003;17465;47.934;33.430;2023-06-19T09:22:24;4.80;4.80;2.00
30713;PMS7003;17465;47.934;33.430;2023-06-19T09:25:01;5.00;5.00;3.00
30713;PMS7003;17465;47.934;33.430;2023-06-19T09:27:32;5.40;5.40;3.60
30713;PMS7003;17465;47.934;33.430;2023-06-19T09:30:04;6.00;6.00;4.20
30713;PMS7003;17465;47.934;33.430;2023-06-19T09:32:36;5.60;5.60;4.20
30713;PMS7003;17465;47.934;33.430;2023-06-19T09:35:06;4.80;4.80;2.20
30713;PMS7003;17465;47.934;33.430;2023-06-19T09:37:38;6.80;6.00;4.00
30713;PMS7003;17465;47.934;33.430;2023-06-19T09:40:09;5.60;5.60;3.60
30713;PMS7003;17465;47.934;33.430;2023-06-19T09:42:41;5.80;5.40;4.00
30713;PMS7003;17465;47.934;33.430;2023-06-19T09:45:31;6.40;6.00;4.80
30713;PMS7003;17465;47.934;33.430;2023-06-19T09:48:03;5.80;5.80;4.20
30713;PMS7003;17465;47.934;33.430;2023-06-19T09:50:38;5.40;5.40;3.00
30713;PMS7003;17465;47.934;33.430;2023-06-19T09:53:10;8.40;6.20;4.60
30713;PMS7003;17465;47.934;33.430;2023-06-19T09:55:41;5.80;5.20;2.80
30713;PMS7003;17465;47.934;33.430;2023-06-19T09:58:14;5.80;5.60;3.00
30713;PMS7003;17465;47.934;33.430;2023-06-19T10:00:46;7.00;6.20;5.00
30713;PMS7003;17465;47.934;33.430;2023-06-19T10:03:17;7.60;7.00;5.80
30713;PMS7003;17465;47.934;33.430;2023-06-19T10:05:56;6.20;6.20;4.80
30713;PMS7003;17465;47.934;33.430;2023-06-19T10:08:32;8.00;5.80;4.00
30713;PMS7003;17465;47.934;33.430;2023-06-19T10:11:09;7.20;6.60;4.20
30713;PMS7003;17465;47.934;33.430;2023-06-19T10:13:47;7.60;7.60;4.40
30713;PMS7003;17465;47.934;33.430;2023-06-19T10:16:21;7.80;7.80;5.00
30713;PMS7003;17465;47.934;33.430;2023-06-19T10:18:57;7.00;5.80;4.00
30713;PMS7003;17465;47.934;33.430;2023-06-19T10:21:43;7.20;6.20;5.00
30713;PMS7003;17465;47.934;33.430;2023-06-19T10:24:04;6.20;6.20;3.00
30713;PMS7003;17465;47.934;33.430;2023-06-19T10:26:35;6.40;6.40;3.60
30713;PMS7003;17465;47.934;33.430;2023-06-19T10:29:21;7.00;6.20;3.00
30713;PMS7003;17465;47.934;33.430;2023-06-19T10:31:47;7.40;7.40;4.60
30713;PMS7003;17465;47.934;33.430;2023-06-19T10:34:17;5.60;5.60;4.00
30713;PMS7003;17465;47.934;33.430;2023-06-19T10:36:56;8.00;8.00;5.40
30713;PMS7003;17465;47.934;33.430;2023-06-19T10:39:29;7.20;7.20;4.00
30713;PMS7003;17465;47.934;33.430;2023-06-19T10:42:04;9.20;6.60;3.00
30713;PMS7003;17465;47.934;33.430;2023-06-19T10:44:37;9.20;9.20;6.00
30713;PMS7003;17465;47.934;33.430;2023-06-19T10:47:07;6.60;6.60;4.80
30713;PMS7003;17465;47.934;33.430;2023-06-19T10:49:38;6.80;6.40;4.60
30713;PMS7003;17465;47.934;33.430;2023-06-19T10:52:09;8.40;8.40;5.00
30713;PMS7003;17465;47.934;33.430;2023-06-19T10:54:40;7.80;7.60;5.00
30713;PMS7003;17465;47.934;33.430;2023-06-19T10:57:10;6.60;6.40;3.80
30713;PMS7003;17465;47.934;33.430;2023-06-19T10:59:40;3.00;3.00;1.60
30713;PMS7003;17465;47.934;33.430;2023-06-19T11:02:18;8.60;7.80;3.00
30713;PMS7003;17465;47.934;33.430;2023-06-19T11:04:48;7.60;7.60;5.00
30713;PMS7003;17465;47.934;33.430;2023-06-19T11:07:21;8.20;8.20;5.80
30713;PMS7003;17465;47.934;33.430;2023-06-19T11:09:52;6.20;6.00;3.60
30713;PMS7003;17465;47.934;33.430;2023-06-19T11:12:22;6.00;5.80;4.00
30713;PMS7003;17465;47.934;33.430;2023-06-19T11:14:57;7.20;7.20;4.40
30713;PMS7003;17465;47.934;33.430;2023-06-19T11:17:28;6.20;6.20;4.20
30713;PMS7003;17465;47.934;33.430;2023-06-19T11:20:00;6.60;6.60;4.00
30713;PMS7003;17465;47.934;33.430;2023-06-19T11:22:36;6.40;6.40;4.80
30713;PMS7003;17465;47.934;33.430;2023-06-19T11:25:08;6.40;6.40;4.00
30713;PMS7003;17465;47.934;33.430;2023-06-19T11:27:46;7.00;6.40;3.40
30713;PMS7003;17465;47.934;33.430;2023-06-19T11:30:16;4.20;4.20;1.00
30713;PMS7003;17465;47.934;33.430;2023-06-19T11:32:47;7.60;7.60;4.60
30713;PMS7003;17465;47.934;33.430;2023-06-19T11:35:17;8.20;8.20;5.20
30713;PMS7003;17465;47.934;33.430;2023-06-19T11:37:48;10.00;10.00;5.40
30713;PMS7003;17465;47.934;33.430;2023-06-19T11:40:18;7.40;7.00;5.00
30713;PMS7003;17465;47.934;33.430;2023-06-19T11:42:49;9.00;7.00;5.00
30713;PMS7003;17465;47.934;33.430;2023-06-19T11:45:21;6.60;6.60;4.40
30713;PMS7003;17465;47.934;33.430;2023-06-19T11:47:52;6.40;6.40;4.20
30713;PMS7003;17465;47.934;33.430;2023-06-19T11:50:26;7.00;6.20;3.60
30713;PMS7003;17465;47.934;33.430;2023-06-19T11:53:02;8.20;8.20;5.00
30713;PMS7003;17465;47.934;33.430;2023-06-19T11:55:32;14.80;14.80;10.60
30713;PMS7003;17465;47.934;33.430;2023-06-19T11:58:03;7.00;7.00;5.20
30713;PMS7003;17465;47.934;33.430;2023-06-19T12:00:43;9.00;9.00;5.80
30713;PMS7003;17465;47.934;33.430;2023-06-19T12:03:13;9.80;9.80;6.20
30713;PMS7003;17465;47.934;33.430;2023-06-19T12:05:48;6.00;6.00;4.00
30713;PMS7003;17465;47.934;33.430;2023-06-19T12:08:21;6.20;6.20;4.00
30713;PMS7003;17465;47.934;33.430;2023-06-19T12:10:51;8.80;8.00;4.80
30713;PMS7003;17465;47.934;33.430;2023-06-19T12:13:22;9.40;9.20;6.40
30713;PMS7003;17465;47.934;33.430;2023-06-19T12:15:53;7.60;7.60;5.20
30713;PMS7003;17465;47.934;33.430;2023-06-19T12:18:23;8.60;8.00;5.80
30713;PMS7003;17465;47.934;33.430;2023-06-19T12:20:54;7.40;7.40;4.80
30713;PMS7003;17465;47.934;33.430;2023-06-19T12:23:27;7.80;7.80;4.60
30713;PMS7003;17465;47.934;33.430;2023-06-19T12:25:57;9.20;8.20;5.20
30713;PMS7003;17465;47.934;33.430;2023-06-19T12:28:31;8.00;8.00;5.80
30713;PMS7003;17465;47.934;33.430;2023-06-19T12:31:04;11.20;11.00;7.40
30713;PMS7003;17465;47.934;33.430;2023-06-19T12:33:35;8.20;8.20;5.60
30713;PMS7003;17465;47.934;33.430;2023-06-19T12:36:07;10.00;8.20;5.00
30713;PMS7003;17465;47.934;33.430;2023-06-19T12:38:43;10.20;10.20;7.00
30713;PMS7003;17465;47.934;33.430;2023-06-19T12:41:13;8.40;8.40;4.80
30713;PMS7003;17465;47.934;33.430;2023-06-19T12:43:44;8.00;7.80;5.20
30713;PMS7003;17465;47.934;33.430;2023-06-19T12:46:15;8.00;8.00;5.20
30713;PMS7003;17465;47.934;33.430;2023-06-19T12:48:47;9.20;9.00;5.00
30713;PMS7003;17465;47.934;33.430;2023-06-19T12:51:19;8.60;8.60;5.40
30713;PMS7003;17465;47.934;33.430;2023-06-19T12:53:51;10.80;9.60;6.80
30713;PMS7003;17465;47.934;33.430;2023-06-19T12:56:22;7.60;7.40;6.00
30713;PMS7003;17465;47.934;33.430;2023-06-19T12:58:53;10.20;9.20;5.80
30713;PMS7003;17465;47.934;33.430;2023-06-19T13:01:24;8.00;8.00;5.80
30713;PMS7003;17465;47.934;33.430;2023-06-19T13:03:55;7.80;7.80;5.80
30713;PMS7003;17465;47.934;33.430;2023-06-19T13:06:26;8.00;8.00;4.40
30713;PMS7003;17465;47.934;33.430;2023-06-19T13:08:57;8.60;8.60;6.00
30713;PMS7003;17465;47.934;33.430;2023-06-19T13:11:27;11.40;11.40;7.60
30713;PMS7003;17465;47.934;33.430;2023-06-19T13:14:01;8.80;8.80;5.40
30713;PMS7003;17465;47.934;33.430;2023-06-19T13:16:32;10.80;9.60;6.00
30713;PMS7003;17465;47.934;33.430;2023-06-19T13:19:07;8.60;7.80;5.40
30713;PMS7003;17465;47.934;33.430;2023-06-19T13:21:55;9.20;9.20;6.40
30713;PMS7003;17465;47.934;33.430;2023-06-19T13:24:26;8.60;8.40;6.00
30713;PMS7003;17465;47.934;33.430;2023-06-19T13:27:04;11.00;10.40;6.20
30713;PMS7003;17465;47.934;33.430;2023-06-19T13:29:31;10.80;9.40;6.40
30713;PMS7003;17465;47.934;33.430;2023-06-19T13:32:03;11.20;9.80;6.20
30713;PMS7003;17465;47.934;33.430;2023-06-19T13:34:37;11.20;10.40;6.60
30713;PMS7003;17465;47.934;33.430;2023-06-19T13:37:08;11.60;11.20;7.80
30713;PMS7003;17465;47.934;33.430;2023-06-19T13:39:41;7.20;7.20;4.80
30713;PMS7003;17465;47.934;33.430;2023-06-19T13:42:11;8.00;6.20;4.00
30713;PMS7003;17465;47.934;33.430;2023-06-19T13:44:42;10.00;10.00;5.60
30713;PMS7003;17465;47.934;33.430;2023-06-19T13:47:12;9.20;9.20;6.80
30713;PMS7003;17465;47.934;33.430;2023-06-19T13:49:44;11.40;9.60;6.20
30713;PMS7003;17465;47.934;33.430;2023-06-19T13:52:15;7.20;7.20;6.20
30713;PMS7003;17465;47.934;33.430;2023-06-19T13:54:45;10.40;9.60;6.80
30713;PMS7003;17465;47.934;33.430;2023-06-19T13:57:17;10.00;9.00;5.80
30713;PMS7003;17465;47.934;33.430;2023-06-19T13:59:48;11.40;10.60;7.20
30713;PMS7003;17465;47.934;33.430;2023-06-19T14:02:18;11.60;11.60;7.20
30713;PMS7003;17465;47.934;33.430;2023-06-19T14:04:49;9.20;9.20;6.80
30713;PMS7003;17465;47.934;33.430;2023-06-19T14:07:19;10.80;10.80;7.20
30713;PMS7003;17465;47.934;33.430;2023-06-19T14:09:50;10.20;9.20;5.00
30713;PMS7003;17465;47.934;33.430;2023-06-19T14:12:20;10.40;10.20;7.00
30713;PMS7003;17465;47.934;33.430;2023-06-19T14:14:50;8.20;8.20;5.00
30713;PMS7003;17465;47.934;33.430;2023-06-19T14:17:21;9.20;7.80;5.00
30713;PMS7003;17465;47.934;33.430;2023-06-19T14:19:54;10.60;8.60;5.60
30713;PMS7003;17465;47.934;33.430;2023-06-19T14:22:23;10.20;10.20;7.20
30713;PMS7003;17465;47.934;33.430;2023-06-19T14:24:56;12.40;11.40;7.00
30713;PMS7003;17465;47.934;33.430;2023-06-19T14:27:27;11.00;11.00;7.20